sensor_id;sensor_type;location;lat;lon;timestamp;temperature;humidity
39849;DHT22;25518;47.878;15.914;2022-12-18T00:01:51;-2.90;99.90
39849;DHT22;25518;47.878;15.914;2022-12-18T00:04:24;-2.90;99.90
39849;DHT22;25518;47.878;15.914;2022-12-18T00:06:56;-2.90;99.90
39849;DHT22;25518;47.878;15.914;2022-12-18T00:09:27;-3.00;99.90
39849;DHT22;25518;47.878;15.914;2022-12-18T00:11:58;-2.90;99.90
39849;DHT22;25518;47.878;15.914;2022-12-18T00:14:29;-2.90;99.90
39849;DHT22;25518;47.878;15.914;2022-12-18T00:17:00;-2.90;99.90
39849;DHT22;25518;47.878;15.914;2022-12-18T00:19:31;-3.30;99.90
39849;DHT22;25518;47.878;15.914;2022-12-18T00:22:02;-2.90;99.90
39849;DHT22;25518;47.878;15.914;2022-12-18T00:24:33;-3.00;99.90
39849;DHT22;25518;47.878;15.914;2022-12-18T00:27:04;-3.30;99.90
39849;DHT22;25518;47.878;15.914;2022-12-18T00:29:35;-3.20;99.90
39849;DHT22;25518;47.878;15.914;2022-12-18T00:32:06;-3.50;99.90
39849;DHT22;25518;47.878;15.914;2022-12-18T00:34:37;-4.60;99.90
39849;DHT22;25518;47.878;15.914;2022-12-18T00:37:07;-3.70;99.90
39849;DHT22;25518;47.878;15.914;2022-12-18T00:39:38;-3.90;99.90
39849;DHT22;25518;47.878;15.914;2022-12-18T00:42:10;-3.80;99.90
39849;DHT22;25518;47.878;15.914;2022-12-18T00:45:01;-3.50;99.90
39849;DHT22;25518;47.878;15.914;2022-12-18T00:47:32;-3.80;99.90
39849;DHT22;25518;47.878;15.914;2022-12-18T00:50:03;-3.70;99.90
39849;DHT22;25518;47.878;15.914;2022-12-18T00:52:34;-3.60;99.90
39849;DHT22;25518;47.878;15.914;2022-12-18T00:55:05;-3.60;99.90
39849;DHT22;25518;47.878;15.914;2022-12-18T00:57:37;-3.50;99.90
39849;DHT22;25518;47.878;15.914;2022-12-18T01:00:11;-3.90;99.90
39849;DHT22;25518;47.878;15.914;2022-12-18T01:02:42;-3.90;99.90
39849;DHT22;25518;47.878;15.914;2022-12-18T01:05:14;-3.70;99.90
39849;DHT22;25518;47.878;15.914;2022-12-18T01:07:45;-3.70;99.90
39849;DHT22;25518;47.878;15.914;2022-12-18T01:10:16;-4.10;99.90
39849;DHT22;25518;47.878;15.914;2022-12-18T01:12:47;-4.10;99.90
39849;DHT22;25518;47.878;15.914;2022-12-18T01:15:18;-4.10;99.90
39849;DHT22;25518;47.878;15.914;2022-12-18T01:17:52;-4.10;99.90
39849;DHT22;25518;47.878;15.914;2022-12-18T01:20:24;-4.10;99.90
39849;DHT22;25518;47.878;15.914;2022-12-18T01:22:54;-4.30;99.90
39849;DHT22;25518;47.878;15.914;2022-12-18T01:25:25;-4.20;99.90
39849;DHT22;25518;47.878;15.914;2022-12-18T01:27:56;-4.10;99.90
39849;DHT22;25518;47.878;15.914;2022-12-18T01:30:28;-4.10;99.90
39849;DHT22;25518;47.878;15.914;2022-12-18T01:32:59;-4.60;99.90
39849;DHT22;25518;47.878;15.914;2022-12-18T01:35:30;-4.50;99.90
39849;DHT22;25518;47.878;15.914;2022-12-18T01:38:01;-4.60;99.90
39849;DHT22;25518;47.878;15.914;2022-12-18T01:40:31;-4.40;99.90
39849;DHT22;25518;47.878;15.914;2022-12-18T01:43:02;-4.50;99.90
39849;DHT22;25518;47.878;15.914;2022-12-18T01:45:33;-4.40;99.90
39849;DHT22;25518;47.878;15.914;2022-12-18T01:48:07;-4.40;99.90
39849;DHT22;25518;47.878;15.914;2022-12-18T01:50:41;-4.40;99.90
39849;DHT22;25518;47.878;15.914;2022-12-18T01:53:17;-4.50;99.90
39849;DHT22;25518;47.878;15.914;2022-12-18T01:55:52;-4.60;99.90
39849;DHT22;25518;47.878;15.914;2022-12-18T01:59:00;-4.50;99.90
39849;DHT22;25518;47.878;15.914;2022-12-18T02:01:33;-4.70;99.90
39849;DHT22;25518;47.878;15.914;2022-12-18T02:04:22;-4.80;99.90
39849;DHT22;25518;47.878;15.914;2022-12-18T02:09:50;-5.00;99.90
39849;DHT22;25518;47.878;15.914;2022-12-18T02:12:34;-5.20;99.90
39849;DHT22;25518;47.878;15.914;2022-12-18T02:15:17;-5.20;99.90
39849;DHT22;25518;47.878;15.914;2022-12-18T02:18:03;-4.90;99.90
39849;DHT22;25518;47.878;15.914;2022-12-18T02:20:45;-5.00;99.90
39849;DHT22;25518;47.878;15.914;2022-12-18T02:29:07;-4.40;99.90
39849;DHT22;25518;47.878;15.914;2022-12-18T02:31:53;-5.10;99.90
39849;DHT22;25518;47.878;15.914;2022-12-18T02:34:31;-5.00;99.90
39849;DHT22;25518;47.878;15.914;2022-12-18T02:37:05;-5.20;99.90
39849;DHT22;25518;47.878;15.914;2022-12-18T02:39:40;-5.20;99.90
39849;DHT22;25518;47.878;15.914;2022-12-18T02:42:12;-5.20;99.90
39849;DHT22;25518;47.878;15.914;2022-12-18T02:44:47;-5.30;99.90
39849;DHT22;25518;47.878;15.914;2022-12-18T02:47:22;-5.20;99.90
39849;DHT22;25518;47.878;15.914;2022-12-18T02:50:45;-5.10;99.90
39849;DHT22;25518;47.878;15.914;2022-12-18T02:53:28;-5.10;99.90
39849;DHT22;25518;47.878;15.914;2022-12-18T02:56:11;-4.90;99.90
39849;DHT22;25518;47.878;15.914;2022-12-18T03:01:19;-4.90;99.90
39849;DHT22;25518;47.878;15.914;2022-12-18T03:18:03;-5.50;99.90
39849;DHT22;25518;47.878;15.914;2022-12-18T03:20:37;-5.60;99.90
39849;DHT22;25518;47.878;15.914;2022-12-18T03:23:15;-5.50;99.90
39849;DHT22;25518;47.878;15.914;2022-12-18T03:25:50;-5.60;99.90
39849;DHT22;25518;47.878;15.914;2022-12-18T03:28:23;-5.80;99.90
39849;DHT22;25518;47.878;15.914;2022-12-18T03:30:57;-5.80;99.90
39849;DHT22;25518;47.878;15.914;2022-12-18T03:33:37;-6.00;99.90
39849;DHT22;25518;47.878;15.914;2022-12-18T03:36:10;-5.80;99.90
39849;DHT22;25518;47.878;15.914;2022-12-18T03:38:41;-5.80;99.90
39849;DHT22;25518;47.878;15.914;2022-12-18T03:44:03;-5.70;99.90
39849;DHT22;25518;47.878;15.914;2022-12-18T03:52:38;-5.60;99.90
39849;DHT22;25518;47.878;15.914;2022-12-18T03:55:11;-5.50;99.90
39849;DHT22;25518;47.878;15.914;2022-12-18T03:57:43;-5.60;99.90
39849;DHT22;25518;47.878;15.914;2022-12-18T04:00:17;-5.80;99.90
39849;DHT22;25518;47.878;15.914;2022-12-18T04:02:52;-6.50;99.90
39849;DHT22;25518;47.878;15.914;2022-12-18T04:05:26;-5.80;99.90
39849;DHT22;25518;47.878;15.914;2022-12-18T04:07:58;-5.00;99.90
39849;DHT22;25518;47.878;15.914;2022-12-18T04:10:29;-6.00;99.90
39849;DHT22;25518;47.878;15.914;2022-12-18T04:13:00;-5.90;99.90
39849;DHT22;25518;47.878;15.914;2022-12-18T04:15:34;-5.70;99.90
39849;DHT22;25518;47.878;15.914;2022-12-18T04:18:07;-6.00;99.90
39849;DHT22;25518;47.878;15.914;2022-12-18T04:20:38;-6.00;99.90
39849;DHT22;25518;47.878;15.914;2022-12-18T04:23:09;-4.90;99.90
39849;DHT22;25518;47.878;15.914;2022-12-18T04:25:40;-6.00;99.90
39849;DHT22;25518;47.878;15.914;2022-12-18T04:28:11;-6.10;99.90
39849;DHT22;25518;47.878;15.914;2022-12-18T04:30:42;-6.00;99.90
39849;DHT22;25518;47.878;15.914;2022-12-18T04:33:13;-6.10;99.90
39849;DHT22;25518;47.878;15.914;2022-12-18T04:35:47;-6.00;99.90
39849;DHT22;25518;47.878;15.914;2022-12-18T04:38:18;-6.10;99.90
39849;DHT22;25518;47.878;15.914;2022-12-18T04:40:49;-6.20;99.90
39849;DHT22;25518;47.878;15.914;2022-12-18T04:43:20;-6.10;99.90
39849;DHT22;25518;47.878;15.914;2022-12-18T04:45:51;-7.50;99.90
39849;DHT22;25518;47.878;15.914;2022-12-18T04:48:22;-6.20;99.90
39849;DHT22;25518;47.878;15.914;2022-12-18T04:50:53;-6.20;99.90
39849;DHT22;25518;47.878;15.914;2022-12-18T04:53:24;-6.20;99.90
39849;DHT22;25518;47.878;15.914;2022-12-18T04:56:13;-6.20;99.90
39849;DHT22;25518;47.878;15.914;2022-12-18T04:58:44;-6.20;99.90
39849;DHT22;25518;47.878;15.914;2022-12-18T05:01:18;-6.10;99.90
39849;DHT22;25518;47.878;15.914;2022-12-18T05:03:51;-6.10;99.90
39849;DHT22;25518;47.878;15.914;2022-12-18T05:06:22;-6.20;99.90
39849;DHT22;25518;47.878;15.914;2022-12-18T05:08:53;-7.70;99.90
39849;DHT22;25518;47.878;15.914;2022-12-18T05:11:27;-6.40;99.90
39849;DHT22;25518;47.878;15.914;2022-12-18T05:13:58;-6.40;99.90
39849;DHT22;25518;47.878;15.914;2022-12-18T05:16:29;-6.40;99.90
39849;DHT22;25518;47.878;15.914;2022-12-18T05:19:00;-6.40;99.90
39849;DHT22;25518;47.878;15.914;2022-12-18T05:21:31;-6.40;99.90
39849;DHT22;25518;47.878;15.914;2022-12-18T05:24:02;-6.50;99.90
39849;DHT22;25518;47.878;15.914;2022-12-18T05:26:33;-6.50;99.90
39849;DHT22;25518;47.878;15.914;2022-12-18T05:29:03;-6.70;99.90
39849;DHT22;25518;47.878;15.914;2022-12-18T05:31:34;-6.80;99.90
39849;DHT22;25518;47.878;15.914;2022-12-18T05:34:06;-6.90;99.90
39849;DHT22;25518;47.878;15.914;2022-12-18T05:36:36;-7.00;99.90
39849;DHT22;25518;47.878;15.914;2022-12-18T05:39:07;-7.00;99.90
39849;DHT22;25518;47.878;15.914;2022-12-18T05:41:38;-6.80;99.90
39849;DHT22;25518;47.878;15.914;2022-12-18T05:44:09;-6.80;99.90
39849;DHT22;25518;47.878;15.914;2022-12-18T05:46:40;-6.90;99.90
39849;DHT22;25518;47.878;15.914;2022-12-18T05:49:11;-6.90;99.90
39849;DHT22;25518;47.878;15.914;2022-12-18T05:51:42;-6.90;99.90
39849;DHT22;25518;47.878;15.914;2022-12-18T05:54:13;-6.80;99.90
39849;DHT22;25518;47.878;15.914;2022-12-18T05:56:44;-6.90;99.90
39849;DHT22;25518;47.878;15.914;2022-12-18T05:59:15;-6.70;99.90
39849;DHT22;25518;47.878;15.914;2022-12-18T06:01:46;-6.70;99.90
39849;DHT22;25518;47.878;15.914;2022-12-18T06:04:17;-6.80;99.90
39849;DHT22;25518;47.878;15.914;2022-12-18T06:06:48;-7.00;99.90
39849;DHT22;25518;47.878;15.914;2022-12-18T06:09:19;-7.20;99.90
39849;DHT22;25518;47.878;15.914;2022-12-18T06:11:51;-7.20;99.90
39849;DHT22;25518;47.878;15.914;2022-12-18T06:14:23;-7.00;99.90
39849;DHT22;25518;47.878;15.914;2022-12-18T06:16:53;-7.00;99.90
39849;DHT22;25518;47.878;15.914;2022-12-18T06:19:24;-7.10;99.90
39849;DHT22;25518;47.878;15.914;2022-12-18T06:21:55;-6.90;99.90
39849;DHT22;25518;47.878;15.914;2022-12-18T06:24:30;-7.10;99.90
39849;DHT22;25518;47.878;15.914;2022-12-18T06:27:00;-7.10;99.90
39849;DHT22;25518;47.878;15.914;2022-12-18T06:29:31;-7.00;99.90
39849;DHT22;25518;47.878;15.914;2022-12-18T06:32:02;-7.10;99.90
39849;DHT22;25518;47.878;15.914;2022-12-18T06:34:34;-7.10;99.90
39849;DHT22;25518;47.878;15.914;2022-12-18T06:37:07;-7.10;99.90
39849;DHT22;25518;47.878;15.914;2022-12-18T06:39:38;-7.20;99.90
39849;DHT22;25518;47.878;15.914;2022-12-18T06:42:09;-7.00;99.90
39849;DHT22;25518;47.878;15.914;2022-12-18T06:44:43;-7.00;99.90
39849;DHT22;25518;47.878;15.914;2022-12-18T06:47:14;-7.00;99.90
39849;DHT22;25518;47.878;15.914;2022-12-18T06:49:45;-7.00;99.90
39849;DHT22;25518;47.878;15.914;2022-12-18T06:52:16;-7.00;99.90
39849;DHT22;25518;47.878;15.914;2022-12-18T06:54:47;-7.00;99.90
39849;DHT22;25518;47.878;15.914;2022-12-18T06:57:17;-7.60;99.90
39849;DHT22;25518;47.878;15.914;2022-12-18T06:59:48;-7.20;99.90
39849;DHT22;25518;47.878;15.914;2022-12-18T07:02:22;-7.20;99.90
39849;DHT22;25518;47.878;15.914;2022-12-18T07:04:53;-7.30;99.90
39849;DHT22;25518;47.878;15.914;2022-12-18T07:07:24;-7.40;99.90
39849;DHT22;25518;47.878;15.914;2022-12-18T07:09:54;-7.10;99.90
39849;DHT22;25518;47.878;15.914;2022-12-18T07:12:27;-7.10;99.90
39849;DHT22;25518;47.878;15.914;2022-12-18T07:14:58;-7.10;99.90
39849;DHT22;25518;47.878;15.914;2022-12-18T07:17:29;-7.10;99.90
39849;DHT22;25518;47.878;15.914;2022-12-18T07:20:00;-7.10;99.90
39849;DHT22;25518;47.878;15.914;2022-12-18T07:22:31;-7.10;99.90
39849;DHT22;25518;47.878;15.914;2022-12-18T07:25:02;-7.00;99.90
39849;DHT22;25518;47.878;15.914;2022-12-18T07:27:33;-7.20;99.90
39849;DHT22;25518;47.878;15.914;2022-12-18T07:30:05;-7.10;99.90
39849;DHT22;25518;47.878;15.914;2022-12-18T07:32:36;-7.00;99.90
39849;DHT22;25518;47.878;15.914;2022-12-18T07:35:07;-7.30;99.90
39849;DHT22;25518;47.878;15.914;2022-12-18T07:37:38;-7.40;99.90
39849;DHT22;25518;47.878;15.914;2022-12-18T07:40:10;-7.20;99.90
39849;DHT22;25518;47.878;15.914;2022-12-18T07:42:41;-7.30;99.90
39849;DHT22;25518;47.878;15.914;2022-12-18T07:45:12;-7.10;99.90
39849;DHT22;25518;47.878;15.914;2022-12-18T07:47:43;-7.20;99.90
39849;DHT22;25518;47.878;15.914;2022-12-18T07:50:14;-6.90;99.90
39849;DHT22;25518;47.878;15.914;2022-12-18T07:52:45;-6.80;99.90
39849;DHT22;25518;47.878;15.914;2022-12-18T07:55:16;-6.80;99.90
39849;DHT22;25518;47.878;15.914;2022-12-18T07:57:46;-6.90;99.90
39849;DHT22;25518;47.878;15.914;2022-12-18T08:00:17;-6.90;99.90
39849;DHT22;25518;47.878;15.914;2022-12-18T08:02:48;-6.90;99.90
39849;DHT22;25518;47.878;15.914;2022-12-18T08:05:20;-6.50;99.90
39849;DHT22;25518;47.878;15.914;2022-12-18T08:07:51;-6.90;99.90
39849;DHT22;25518;47.878;15.914;2022-12-18T08:10:22;-6.90;99.90
39849;DHT22;25518;47.878;15.914;2022-12-18T08:12:53;-7.00;99.90
39849;DHT22;25518;47.878;15.914;2022-12-18T08:15:24;-6.80;99.90
39849;DHT22;25518;47.878;15.914;2022-12-18T08:17:57;-6.70;99.90
39849;DHT22;25518;47.878;15.914;2022-12-18T08:20:28;-6.80;99.90
39849;DHT22;25518;47.878;15.914;2022-12-18T08:22:58;-6.80;99.90
39849;DHT22;25518;47.878;15.914;2022-12-18T08:25:29;-6.90;99.90
39849;DHT22;25518;47.878;15.914;2022-12-18T08:28:00;-7.00;99.90
39849;DHT22;25518;47.878;15.914;2022-12-18T08:30:31;-6.70;99.90
39849;DHT22;25518;47.878;15.914;2022-12-18T08:33:02;-6.60;99.90
39849;DHT22;25518;47.878;15.914;2022-12-18T08:35:35;-6.70;99.90
39849;DHT22;25518;47.878;15.914;2022-12-18T08:38:07;-6.70;99.90
39849;DHT22;25518;47.878;15.914;2022-12-18T08:40:38;-6.70;99.90
39849;DHT22;25518;47.878;15.914;2022-12-18T08:43:10;-6.60;99.90
39849;DHT22;25518;47.878;15.914;2022-12-18T08:46:01;-6.60;99.90
39849;DHT22;25518;47.878;15.914;2022-12-18T08:48:32;-6.50;99.90
39849;DHT22;25518;47.878;15.914;2022-12-18T08:51:03;-6.40;99.90
39849;DHT22;25518;47.878;15.914;2022-12-18T08:53:34;-6.30;99.90
39849;DHT22;25518;47.878;15.914;2022-12-18T08:56:06;-6.40;99.90
39849;DHT22;25518;47.878;15.914;2022-12-18T08:58:37;-6.30;99.90
39849;DHT22;25518;47.878;15.914;2022-12-18T09:01:10;-5.90;99.90
39849;DHT22;25518;47.878;15.914;2022-12-18T09:03:42;-6.50;99.90
39849;DHT22;25518;47.878;15.914;2022-12-18T09:06:15;-6.50;99.90
39849;DHT22;25518;47.878;15.914;2022-12-18T09:08:46;-6.60;99.90
39849;DHT22;25518;47.878;15.914;2022-12-18T09:11:22;-6.30;99.90
39849;DHT22;25518;47.878;15.914;2022-12-18T09:13:54;-6.20;99.90
39849;DHT22;25518;47.878;15.914;2022-12-18T09:16:26;-6.00;99.90
39849;DHT22;25518;47.878;15.914;2022-12-18T09:18:59;-6.40;99.90
39849;DHT22;25518;47.878;15.914;2022-12-18T09:21:33;-6.00;99.90
39849;DHT22;25518;47.878;15.914;2022-12-18T09:24:04;-5.90;99.90
39849;DHT22;25518;47.878;15.914;2022-12-18T09:26:36;-5.90;99.90
39849;DHT22;25518;47.878;15.914;2022-12-18T09:29:07;-6.20;99.90
39849;DHT22;25518;47.878;15.914;2022-12-18T09:31:38;-6.10;99.90
39849;DHT22;25518;47.878;15.914;2022-12-18T09:34:10;-6.00;99.90
39849;DHT22;25518;47.878;15.914;2022-12-18T09:36:41;-6.00;99.90
39849;DHT22;25518;47.878;15.914;2022-12-18T09:39:12;-5.80;99.90
39849;DHT22;25518;47.878;15.914;2022-12-18T09:41:46;-5.70;99.90
39849;DHT22;25518;47.878;15.914;2022-12-18T09:44:25;-5.80;99.90
39849;DHT22;25518;47.878;15.914;2022-12-18T09:49:55;-6.10;99.90
39849;DHT22;25518;47.878;15.914;2022-12-18T09:55:11;-5.90;99.90
39849;DHT22;25518;47.878;15.914;2022-12-18T09:57:49;-5.60;99.90
39849;DHT22;25518;47.878;15.914;2022-12-18T10:00:23;-5.60;99.90
39849;DHT22;25518;47.878;15.914;2022-12-18T10:03:03;-5.30;99.90
39849;DHT22;25518;47.878;15.914;2022-12-18T10:05:42;-5.20;99.90
39849;DHT22;25518;47.878;15.914;2022-12-18T10:19:43;-4.90;99.90
39849;DHT22;25518;47.878;15.914;2022-12-18T10:25:22;-5.00;99.90
39849;DHT22;25518;47.878;15.914;2022-12-18T10:27:58;-4.70;99.90
39849;DHT22;25518;47.878;15.914;2022-12-18T10:30:31;-4.50;99.90
39849;DHT22;25518;47.878;15.914;2022-12-18T10:33:02;-4.50;99.90
39849;DHT22;25518;47.878;15.914;2022-12-18T10:35:34;-4.50;99.90
39849;DHT22;25518;47.878;15.914;2022-12-18T10:40:53;-4.20;99.90
39849;DHT22;25518;47.878;15.914;2022-12-18T10:43:29;-4.00;99.90
39849;DHT22;25518;47.878;15.914;2022-12-18T10:46:04;-3.90;99.90
39849;DHT22;25518;47.878;15.914;2022-12-18T10:48:55;-3.60;99.90
39849;DHT22;25518;47.878;15.914;2022-12-18T10:51:29;-3.50;99.90
39849;DHT22;25518;47.878;15.914;2022-12-18T10:56:35;-3.70;99.90
39849;DHT22;25518;47.878;15.914;2022-12-18T10:59:10;-3.10;99.90
39849;DHT22;25518;47.878;15.914;2022-12-18T11:01:58;-2.80;99.90
39849;DHT22;25518;47.878;15.914;2022-12-18T11:04:31;-2.70;99.90
39849;DHT22;25518;47.878;15.914;2022-12-18T11:07:06;-3.00;99.90
39849;DHT22;25518;47.878;15.914;2022-12-18T11:09:39;-2.20;99.90
39849;DHT22;25518;47.878;15.914;2022-12-18T11:12:18;-2.00;99.90
39849;DHT22;25518;47.878;15.914;2022-12-18T11:14:52;-1.70;99.90
39849;DHT22;25518;47.878;15.914;2022-12-18T11:17:31;-2.10;99.90
39849;DHT22;25518;47.878;15.914;2022-12-18T11:20:05;-1.50;99.90
39849;DHT22;25518;47.878;15.914;2022-12-18T11:22:39;-1.40;99.90
39849;DHT22;25518;47.878;15.914;2022-12-18T11:27:52;-2.20;99.90
39849;DHT22;25518;47.878;15.914;2022-12-18T11:33:19;-1.50;99.90
39849;DHT22;25518;47.878;15.914;2022-12-18T11:36:02;-1.20;99.90
39849;DHT22;25518;47.878;15.914;2022-12-18T11:38:37;-1.70;99.90
39849;DHT22;25518;47.878;15.914;2022-12-18T11:41:19;-3.00;99.90
39849;DHT22;25518;47.878;15.914;2022-12-18T11:43:54;-1.50;99.90
39849;DHT22;25518;47.878;15.914;2022-12-18T11:46:33;-1.30;99.90
39849;DHT22;25518;47.878;15.914;2022-12-18T11:49:12;-1.30;99.90
39849;DHT22;25518;47.878;15.914;2022-12-18T11:52:24;-1.50;99.90
39849;DHT22;25518;47.878;15.914;2022-12-18T11:54:44;-1.50;99.90
39849;DHT22;25518;47.878;15.914;2022-12-18T11:57:36;-1.50;99.90
39849;DHT22;25518;47.878;15.914;2022-12-18T12:00:21;-1.50;99.90
39849;DHT22;25518;47.878;15.914;2022-12-18T12:09:20;-1.90;99.90
39849;DHT22;25518;47.878;15.914;2022-12-18T12:17:37;-1.90;99.90
39849;DHT22;25518;47.878;15.914;2022-12-18T12:20:39;-1.50;99.90
39849;DHT22;25518;47.878;15.914;2022-12-18T12:23:33;-1.50;99.90
39849;DHT22;25518;47.878;15.914;2022-12-18T12:26:19;-1.50;99.90
39849;DHT22;25518;47.878;15.914;2022-12-18T12:29:14;-1.40;99.90
39849;DHT22;25518;47.878;15.914;2022-12-18T12:38:27;-1.20;99.90
39849;DHT22;25518;47.878;15.914;2022-12-18T12:40:33;-1.40;99.90
39849;DHT22;25518;47.878;15.914;2022-12-18T12:43:16;-1.30;99.90
39849;DHT22;25518;47.878;15.914;2022-12-18T12:46:05;-1.20;99.90
39849;DHT22;25518;47.878;15.914;2022-12-18T12:48:57;-1.20;99.90
39849;DHT22;25518;47.878;15.914;2022-12-18T12:51:33;-1.30;99.90
39849;DHT22;25518;47.878;15.914;2022-12-18T12:54:17;-1.40;99.90
39849;DHT22;25518;47.878;15.914;2022-12-18T12:57:12;-2.30;99.90
39849;DHT22;25518;47.878;15.914;2022-12-18T13:07:35;-1.70;99.90
39849;DHT22;25518;47.878;15.914;2022-12-18T13:10:31;-1.10;99.90
39849;DHT22;25518;47.878;15.914;2022-12-18T13:15:45;-1.10;99.90
39849;DHT22;25518;47.878;15.914;2022-12-18T13:18:21;-1.10;99.90
39849;DHT22;25518;47.878;15.914;2022-12-18T13:23:33;-1.10;99.90
39849;DHT22;25518;47.878;15.914;2022-12-18T13:36:52;-1.50;99.90
39849;DHT22;25518;47.878;15.914;2022-12-18T13:39:33;-1.50;99.90
39849;DHT22;25518;47.878;15.914;2022-12-18T13:44:37;-1.30;99.90
39849;DHT22;25518;47.878;15.914;2022-12-18T13:47:27;-1.40;99.90
39849;DHT22;25518;47.878;15.914;2022-12-18T13:50:10;-1.40;99.90
39849;DHT22;25518;47.878;15.914;2022-12-18T13:52:51;-1.50;99.90
39849;DHT22;25518;47.878;15.914;2022-12-18T13:55:23;-1.50;99.90
39849;DHT22;25518;47.878;15.914;2022-12-18T13:58:04;-0.90;99.90
39849;DHT22;25518;47.878;15.914;2022-12-18T14:00:36;-1.60;99.90
39849;DHT22;25518;47.878;15.914;2022-12-18T14:03:23;-2.40;99.90
39849;DHT22;25518;47.878;15.914;2022-12-18T14:06:00;-1.70;99.90
39849;DHT22;25518;47.878;15.914;2022-12-18T14:08:37;-1.70;99.90
39849;DHT22;25518;47.878;15.914;2022-12-18T14:11:19;-2.60;99.90
39849;DHT22;25518;47.878;15.914;2022-12-18T14:13:53;-1.90;99.90
39849;DHT22;25518;47.878;15.914;2022-12-18T14:16:24;-1.90;99.90
39849;DHT22;25518;47.878;15.914;2022-12-18T14:18:57;-1.80;99.90
39849;DHT22;25518;47.878;15.914;2022-12-18T14:21:30;-1.80;99.90
39849;DHT22;25518;47.878;15.914;2022-12-18T14:26:39;-1.30;99.90
39849;DHT22;25518;47.878;15.914;2022-12-18T14:29:28;-1.60;99.90
39849;DHT22;25518;47.878;15.914;2022-12-18T14:32:18;-1.90;99.90
39849;DHT22;25518;47.878;15.914;2022-12-18T14:34:51;-1.70;99.90
39849;DHT22;25518;47.878;15.914;2022-12-18T14:37:26;-1.20;99.90
39849;DHT22;25518;47.878;15.914;2022-12-18T14:40:00;-1.70;99.90
39849;DHT22;25518;47.878;15.914;2022-12-18T14:42:31;-1.90;99.90
39849;DHT22;25518;47.878;15.914;2022-12-18T14:45:39;-2.00;99.90
39849;DHT22;25518;47.878;15.914;2022-12-18T14:53:34;-2.30;99.90
39849;DHT22;25518;47.878;15.914;2022-12-18T14:56:24;-2.40;99.90
39849;DHT22;25518;47.878;15.914;2022-12-18T15:01:29;-2.40;99.90
39849;DHT22;25518;47.878;15.914;2022-12-18T15:04:03;-3.30;99.90
39849;DHT22;25518;47.878;15.914;2022-12-18T15:06:37;-2.70;99.90
39849;DHT22;25518;47.878;15.914;2022-12-18T15:09:26;-2.60;99.90
39849;DHT22;25518;47.878;15.914;2022-12-18T15:11:59;-4.60;99.90
39849;DHT22;25518;47.878;15.914;2022-12-18T15:17:04;-3.70;99.90
39849;DHT22;25518;47.878;15.914;2022-12-18T15:19:39;-2.60;99.90
39849;DHT22;25518;47.878;15.914;2022-12-18T15:24:50;-2.80;99.90
39849;DHT22;25518;47.878;15.914;2022-12-18T15:32:46;-2.80;99.90
39849;DHT22;25518;47.878;15.914;2022-12-18T15:35:21;-2.90;99.90
39849;DHT22;25518;47.878;15.914;2022-12-18T15:37:52;-2.70;99.90
39849;DHT22;25518;47.878;15.914;2022-12-18T15:40:24;-2.80;99.90
39849;DHT22;25518;47.878;15.914;2022-12-18T15:42:55;-3.40;99.90
39849;DHT22;25518;47.878;15.914;2022-12-18T15:45:46;-2.60;99.90
39849;DHT22;25518;47.878;15.914;2022-12-18T15:48:22;-2.50;99.90
39849;DHT22;25518;47.878;15.914;2022-12-18T15:50:56;-3.30;99.90
39849;DHT22;25518;47.878;15.914;2022-12-18T15:53:32;-2.40;99.90
39849;DHT22;25518;47.878;15.914;2022-12-18T15:56:07;-2.40;99.90
39849;DHT22;25518;47.878;15.914;2022-12-18T15:59:00;-2.50;99.90
39849;DHT22;25518;47.878;15.914;2022-12-18T16:01:31;-2.50;99.90
39849;DHT22;25518;47.878;15.914;2022-12-18T16:04:02;-2.40;99.90
39849;DHT22;25518;47.878;15.914;2022-12-18T16:06:33;-3.20;99.90
39849;DHT22;25518;47.878;15.914;2022-12-18T16:09:05;-2.50;99.90
39849;DHT22;25518;47.878;15.914;2022-12-18T16:11:37;-2.40;99.90
39849;DHT22;25518;47.878;15.914;2022-12-18T16:14:21;-3.00;99.90
39849;DHT22;25518;47.878;15.914;2022-12-18T16:16:55;-4.80;99.90
39849;DHT22;25518;47.878;15.914;2022-12-18T16:19:28;-2.50;99.90
39849;DHT22;25518;47.878;15.914;2022-12-18T16:22:00;-2.40;99.90
39849;DHT22;25518;47.878;15.914;2022-12-18T16:24:34;-2.40;99.90
39849;DHT22;25518;47.878;15.914;2022-12-18T16:27:07;-2.60;99.90
39849;DHT22;25518;47.878;15.914;2022-12-18T16:29:38;-2.70;99.90
39849;DHT22;25518;47.878;15.914;2022-12-18T16:32:20;-2.50;99.90
39849;DHT22;25518;47.878;15.914;2022-12-18T16:34:51;-2.40;99.90
39849;DHT22;25518;47.878;15.914;2022-12-18T16:37:22;-2.20;99.90
39849;DHT22;25518;47.878;15.914;2022-12-18T16:39:53;-2.20;99.90
39849;DHT22;25518;47.878;15.914;2022-12-18T16:42:23;-1.70;99.90
39849;DHT22;25518;47.878;15.914;2022-12-18T16:44:54;-2.20;99.90
39849;DHT22;25518;47.878;15.914;2022-12-18T16:47:25;-2.20;99.90
39849;DHT22;25518;47.878;15.914;2022-12-18T16:49:56;-2.10;99.90
39849;DHT22;25518;47.878;15.914;2022-12-18T16:52:28;-2.40;99.90
39849;DHT22;25518;47.878;15.914;2022-12-18T16:54:59;-2.30;99.90
39849;DHT22;25518;47.878;15.914;2022-12-18T16:57:30;-2.20;99.90
39849;DHT22;25518;47.878;15.914;2022-12-18T17:00:02;-2.40;99.90
39849;DHT22;25518;47.878;15.914;2022-12-18T17:02:33;-2.40;99.90
39849;DHT22;25518;47.878;15.914;2022-12-18T17:05:04;-2.40;99.90
39849;DHT22;25518;47.878;15.914;2022-12-18T17:07:38;-2.40;99.90
39849;DHT22;25518;47.878;15.914;2022-12-18T17:10:09;-2.30;99.90
39849;DHT22;25518;47.878;15.914;2022-12-18T17:12:40;-2.30;99.90
39849;DHT22;25518;47.878;15.914;2022-12-18T17:15:12;-2.20;99.90
39849;DHT22;25518;47.878;15.914;2022-12-18T17:17:43;-2.80;99.90
39849;DHT22;25518;47.878;15.914;2022-12-18T17:20:14;-2.10;99.90
39849;DHT22;25518;47.878;15.914;2022-12-18T17:22:45;-2.30;99.90
39849;DHT22;25518;47.878;15.914;2022-12-18T17:25:16;-2.00;99.90
39849;DHT22;25518;47.878;15.914;2022-12-18T17:27:49;-1.40;99.90
39849;DHT22;25518;47.878;15.914;2022-12-18T17:30:20;-2.00;99.90
39849;DHT22;25518;47.878;15.914;2022-12-18T17:32:50;-2.30;99.90
39849;DHT22;25518;47.878;15.914;2022-12-18T17:35:21;-3.30;99.90
39849;DHT22;25518;47.878;15.914;2022-12-18T17:37:52;-2.40;99.90
39849;DHT22;25518;47.878;15.914;2022-12-18T17:40:23;-2.60;99.90
39849;DHT22;25518;47.878;15.914;2022-12-18T17:42:54;-2.60;99.90
39849;DHT22;25518;47.878;15.914;2022-12-18T17:45:25;-3.40;99.90
39849;DHT22;25518;47.878;15.914;2022-12-18T17:47:56;-2.60;99.90
39849;DHT22;25518;47.878;15.914;2022-12-18T17:50:27;-2.50;99.90
39849;DHT22;25518;47.878;15.914;2022-12-18T17:52:58;-3.00;99.90
39849;DHT22;25518;47.878;15.914;2022-12-18T17:55:29;-2.50;99.90
39849;DHT22;25518;47.878;15.914;2022-12-18T17:58:00;-2.50;99.90
39849;DHT22;25518;47.878;15.914;2022-12-18T18:00:31;-1.60;99.90
39849;DHT22;25518;47.878;15.914;2022-12-18T18:03:02;-2.60;99.90
39849;DHT22;25518;47.878;15.914;2022-12-18T18:05:32;-4.80;99.90
39849;DHT22;25518;47.878;15.914;2022-12-18T18:08:04;-2.80;99.90
39849;DHT22;25518;47.878;15.914;2022-12-18T18:10:36;-2.80;99.90